Saint Paul, MN (55105)

2:20 AM CDT on April 28, 2015 (GMT -0500)
Mac-Grove | | Change Station
CLOSE
Current Station
Personal Weather Station
Location: Saint Paul, MN
Elevation: 912 ft
Nearby Weather Stations

Elev 912 ft 44.93 °N, 93.19 °W | Updated 10 seconds ago

Partly Cloudy
Partly Cloudy
48.7 °F
Feels Like 49 °F
N
0.0
Wind Variable Wind from North
Gusts 0.0 mph

Today
High -- | Low -- °F
--% Chance of Precip.
Yesterday
High -- | Low -- °F
Precip. -- in
6:07 AM 8:14 PM
Waxing Gibbous, 71% visible
Pressure 30.15 in
Visibility 10.0 miles
Clouds Mostly Cloudy 30000 ft
Windchill 49 °F
Dew Point 32 °F
Humidity 27%
Rainfall 0.00 in
Snow Depth Not available.
UV 0 out of 12
Pollen 9.10 out of 12
Air Quality Not available.
Flu Activity Local Activity
METAR KMSP 280653Z 21003KT 10SM BKN300 11/M01 A3015 RMK AO2 SLP210 T01111011

More Conditions Fewer Conditions

Pressure 30.15 in
Visibility 10.0 miles
Clouds Mostly Cloudy 30000 ft
Windchill 49 °F
Dew Point 32 °F
Humidity 27%
Rainfall 0.00 in
Snow Depth Not available.
UV 0 out of 12
Pollen 9.10 out of 12
Air Quality Not available.
Flu Activity Local Activity
METAR KMSP 280653Z 21003KT 10SM BKN300 11/M01 A3015 RMK AO2 SLP210 T01111011

More Conditions Fewer Conditions

10-Day Weather Forecast

Almanac

Astronomy

Apr. 28, 2015 Rise Set
Actual Time
Civil Twilight
Nautical Twilight
Astronomical Twilight
Moon
Length of Visible Light
Length of Day
Tomorrow will be .
, % of the Moon is Illuminated

Today's Extremes

State Highs State Lows

Community

WunderPhotos

Upload Photos

1,817,594 photos uploaded!

WunderBlogs® & News

Nearby

Air Quality

  Air Quality AQ Index Pollutant
Not available.

Snow Depth

Station Depth Elevation

Earthquake Activity

City Distance Mag. Time & Date
Minimum magnitude displayed is 2.5.

Coastal Water Temperatures

Place Temperature

Stations

Nearby Weather Stations

Station Location Temp. Windchill Dew Point Humidity Wind Precip. Elev Updated Type